Aviation Digital Data Service (ADDS)

Output produced by METARs form (1315 UTC 07 October 2022)
found at http://www.aviationweather.gov/metar/data/
 
VTBD 071300Z 21004KT 200V260 9000 -RA FEW020 BKN040 25/25 Q1011 NOSIG
VTBD 071230Z 21003KT 9999 -RA FEW020 BKN040 25/25 Q1010 NOSIG
VTBD 071200Z 20003KT 9999 -RA FEW020 SCT025 BKN040 25/25 Q1010 NOSIG
VTBD 071130Z 19004KT 9999 -RA FEW020 SCT025 BKN040 25/25 Q1011 NOSIG
VTBD 071100Z 15005KT 9999 -RA FEW020 SCT025 BKN040 25/25 Q1010 NOSIG
VTBD 071030Z 15004KT 120V190 9000 -RA FEW020 SCT025 BKN040 25/25 Q1010 NOSIG
VTBD 071000Z 13007KT 100V170 9000 -RA FEW020 SCT025 BKN040 25/25 Q1009 NOSIG
VTBD 070930Z 11012KT 9000 -SHRA FEW020CB SCT025 BKN040 25/25 Q1009 NOSIG
VTBD 070900Z 10019G29KT 070V140 9000 4000E -SHRA FEW020CB SCT025 BKN040 26/25 Q1008 WS ALL RWY TEMPO TL0930 3000 TSRA
VTBD 070830Z 11010KT 060V140 9999 FEW020CB SCT025 BKN040 33/24 Q1007 TEMPO TL0930 11015G30KT 3000 TSRA
VTBD 070800Z 09008KT 050V130 9999 FEW020CB SCT025 BKN040 33/24 Q1007 TEMPO FM0830 TL0930 11015G30KT 3000 TSRA
VTBD 070730Z 10008KT 060V140 9999 SCT020 BKN040 32/24 Q1008 NOSIG
VTBD 070700Z 08007KT 050V110 9999 FEW020 SCT040 32/24 Q1008 NOSIG
VTBD 070630Z 12006KT 050V160 9999 FEW020 SCT040 32/23 Q1008 NOSIG
VTBD 070600Z 11006KT 070V150 9999 FEW020 SCT040 32/24 Q1009 NOSIG
VTBD 070530Z 12008KT 080V140 9999 FEW020 SCT040 32/24 Q1010 NOSIG
VTBD 070500Z 11006KT 070V180 9999 FEW020 SCT040 31/24 Q1011 NOSIG
VTBD 070430Z VRB05KT 9999 FEW020 SCT040 31/24 Q1011 NOSIG
VTBD 070400Z VRB03KT 9999 FEW020 SCT030 31/25 Q1012 NOSIG
VTBD 070330Z 08004KT 360V160 9999 FEW020 SCT030 30/25 Q1012 NOSIG
VTBD 070300Z 02005KT 340V100 9999 FEW020 SCT030 30/27 Q1012 NOSIG
VTBD 070230Z 02006KT 340V060 9999 FEW020 SCT030 29/25 Q1012 NOSIG
VTBD 070200Z 04005KT 010V070 9999 FEW020 28/26 Q1012 NOSIG
VTBD 070130Z 04004KT 360V070 9999 FEW020 28/27 Q1012 NOSIG
VTBD 070100Z 05004KT 9999 FEW020 SCT040 26/26 Q1012 NOSIG
VTBD 070030Z 05003KT 9999 FEW020 26/26 Q1011 NOSIG
VTBD 070000Z 06003KT 020V080 9999 FEW020 26/26 Q1011 NOSIG
VTBD 062330Z 05003KT 020V080 9999 FEW020 25/25 Q1011 NOSIG
VTBD 062300Z 07003KT 9999 FEW020 SCT030 25/25 Q1010 NOSIG
VTBD 062230Z 06003KT 9999 FEW020 SCT030 25/25 Q1010 NOSIG
VTBD 062200Z 03003KT 350V060 9999 FEW020 SCT030 25/25 Q1010 NOSIG
VTBD 062130Z 01003KT 350V050 9999 FEW020 SCT030 25/25 Q1010 NOSIG
VTBD 062100Z 00000KT 9999 FEW020 SCT030 25/25 Q1010 NOSIG
VTBD 062030Z 02003KT 9999 FEW020 SCT030 25/25 Q1010 NOSIG
VTBD 062000Z 27003KT 240V300 9999 FEW020 26/26 Q1010 NOSIG
VTBD 061930Z 29004KT 9999 FEW020 26/26 Q1010 NOSIG
VTBD 061900Z 32003KT 9999 FEW020 26/26 Q1011 NOSIG
VTBD 061830Z 34004KT 9999 FEW020 26/26 Q1011 NOSIG
VTBD 061800Z 35004KT 9999 FEW020 26/26 Q1011 NOSIG
VTBD 061730Z 02003KT 9999 FEW020 25/25 Q1011 NOSIG
VTBD 061700Z 01003KT 9999 FEW020 25/25 Q1012 NOSIG
VTBD 061630Z 36003KT 330V030 9999 FEW020 26/26 Q1012 NOSIG
VTBD 061600Z 00000KT 9999 FEW020 25/25 Q1012 NOSIG
VTBD 061530Z VRB02KT 9999 FEW020 26/26 Q1012 NOSIG
VTBD 061500Z 13005KT 9999 -RA FEW020 SCT030 26/26 Q1012 NOSIG
VTBD 061430Z 15007KT 110V180 9999 -RA FEW020 SCT030 26/26 Q1012 NOSIG
VTBD 061400Z 13005KT 100V160 7000 -RA SCT020 BKN030 26/26 Q1012 NOSIG
VTBD 061330Z 10007KT 9999 -RA SCT020 27/25 Q1012 NOSIG
TAF VTBD 071100Z 0712/0818 13005KT 8000 FEW015 SCT060 
     TEMPO 0712/0717 15010G25KT 4000 TSRA FEW018CB SCT030 BKN060 
     BECMG 0718/0720 07005KT